DeKalb-Peachtree Airport Airport (PDK)

Airport Diagram
Current Weather/Forecast (VFR Conditions)
METAR KPDK 241353Z 00000KT 10SM CLR 26/18 A2997 RMK AO2 SLP130 T02610178
TAF KPDK 241123Z 2412/2512 00000KT P6SM FEW100 BKN120 FM241600 26006KT P6SM SCT035 TEMPO 2417/2421 4SM TSRA BR BKN040CB FM242300 27004KT P6SM SCT040 FM250100 VRB03KT P6SM SCT250 FM251000 00000KT P6SM SCT025 BKN100

All Charts
General
Chart Name Download
AIRPORT DIAGRAM
TAKEOFF MINIMUMS
ALTERNATE MINIMUMS
HOT SPOT

Arrivals
Chart Name Download
BOKRT THREE (RNAV)
BUKHD THREE (RNAV)
DEHAN THREE (RNAV)
DEHAN THREE (RNAV), CONT.1
SWTEE TWO (RNAV)
WRGNZ THREE (RNAV)

Approaches
Chart Name Download
ILS OR LOC RWY 21L
RNAV (RNP) RWY 03R
RNAV (RNP) Z RWY 21L
RNAV (GPS) Y RWY 21L
RNAV (GPS)-A


Inbound Traffic (Arrivals)

No inbound traffic.


Outbound Traffic (Departures)

No outbound traffic.